sensor_id;sensor_type;location;lat;lon;timestamp;pressure;altitude;pressure_sealevel;temperature;humidity
69842;BME280;57138;51.326;-0.068;2023-04-02T00:01:36;99913.38;;;6.42;88.61
69842;BME280;57138;51.326;-0.068;2023-04-02T00:04:05;99926.66;;;6.42;88.63
69842;BME280;57138;51.326;-0.068;2023-04-02T00:06:36;99927.50;;;6.43;88.07
69842;BME280;57138;51.326;-0.068;2023-04-02T00:11:41;99925.34;;;6.38;88.68
69842;BME280;57138;51.326;-0.068;2023-04-02T00:14:17;99933.47;;;6.37;88.28
69842;BME280;57138;51.326;-0.068;2023-04-02T00:16:45;99935.66;;;6.33;88.63
69842;BME280;57138;51.326;-0.068;2023-04-02T00:19:15;99947.72;;;6.36;89.41
69842;BME280;57138;51.326;-0.068;2023-04-02T00:21:43;99953.38;;;6.33;89.44
69842;BME280;57138;51.326;-0.068;2023-04-02T00:24:15;99950.91;;;6.31;89.89
69842;BME280;57138;51.326;-0.068;2023-04-02T00:26:46;99950.75;;;6.24;90.47
69842;BME280;57138;51.326;-0.068;2023-04-02T00:29:13;99954.91;;;6.19;90.15
69842;BME280;57138;51.326;-0.068;2023-04-02T00:31:48;99958.72;;;6.16;89.94
69842;BME280;57138;51.326;-0.068;2023-04-02T00:34:21;99963.88;;;6.09;90.98
69842;BME280;57138;51.326;-0.068;2023-04-02T00:36:48;99960.53;;;6.07;91.35
69842;BME280;57138;51.326;-0.068;2023-04-02T00:39:21;99961.38;;;6.08;90.88
69842;BME280;57138;51.326;-0.068;2023-04-02T00:41:50;99968.66;;;6.06;91.81
69842;BME280;57138;51.326;-0.068;2023-04-02T00:44:19;99957.72;;;6.01;92.65
69842;BME280;57138;51.326;-0.068;2023-04-02T00:46:46;99965.50;;;6.02;92.60
69842;BME280;57138;51.326;-0.068;2023-04-02T00:49:30;99978.78;;;6.02;92.49
69842;BME280;57138;51.326;-0.068;2023-04-02T00:52:22;99984.41;;;5.99;93.71
69842;BME280;57138;51.326;-0.068;2023-04-02T00:55:16;99992.38;;;5.99;93.12
69842;BME280;57138;51.326;-0.068;2023-04-02T00:57:47;99988.34;;;5.95;93.02
69842;BME280;57138;51.326;-0.068;2023-04-02T01:00:32;99995.34;;;5.96;93.79
69842;BME280;57138;51.326;-0.068;2023-04-02T01:05:41;99994.84;;;5.92;93.09
69842;BME280;57138;51.326;-0.068;2023-04-02T01:18:41;100019.38;;;5.94;92.97
69842;BME280;57138;51.326;-0.068;2023-04-02T01:24:07;100028.03;;;5.97;92.80
69842;BME280;57138;51.326;-0.068;2023-04-02T01:31:49;100036.59;;;5.90;93.11
69842;BME280;57138;51.326;-0.068;2023-04-02T01:34:18;100038.13;;;5.93;92.93
69842;BME280;57138;51.326;-0.068;2023-04-02T01:44:41;100046.72;;;5.79;94.83
69842;BME280;57138;51.326;-0.068;2023-04-02T01:47:13;100046.06;;;5.76;94.71
69842;BME280;57138;51.326;-0.068;2023-04-02T01:49:41;100036.75;;;5.72;94.85
69842;BME280;57138;51.326;-0.068;2023-04-02T01:52:07;100051.00;;;5.71;95.38
69842;BME280;57138;51.326;-0.068;2023-04-02T01:54:33;100047.69;;;5.69;94.73
69842;BME280;57138;51.326;-0.068;2023-04-02T01:57:02;100053.16;;;5.68;95.23
69842;BME280;57138;51.326;-0.068;2023-04-02T01:59:29;100060.94;;;5.69;95.57
69842;BME280;57138;51.326;-0.068;2023-04-02T02:02:02;100058.94;;;5.71;96.10
69842;BME280;57138;51.326;-0.068;2023-04-02T02:04:29;100064.25;;;5.71;95.88
69842;BME280;57138;51.326;-0.068;2023-04-02T02:06:57;100064.25;;;5.71;95.79
69842;BME280;57138;51.326;-0.068;2023-04-02T02:09:28;100065.94;;;5.72;96.45
69842;BME280;57138;51.326;-0.068;2023-04-02T02:11:57;100063.94;;;5.74;95.80
69842;BME280;57138;51.326;-0.068;2023-04-02T02:14:28;100068.25;;;5.75;95.55
69842;BME280;57138;51.326;-0.068;2023-04-02T02:16:58;100074.22;;;5.78;95.26
69842;BME280;57138;51.326;-0.068;2023-04-02T02:19:35;100080.38;;;5.78;95.47
69842;BME280;57138;51.326;-0.068;2023-04-02T02:22:12;100085.00;;;5.76;95.50
69842;BME280;57138;51.326;-0.068;2023-04-02T02:24:41;100078.06;;;5.75;95.25
69842;BME280;57138;51.326;-0.068;2023-04-02T02:30:26;100089.66;;;5.82;94.72
69842;BME280;57138;51.326;-0.068;2023-04-02T02:33:04;100090.47;;;5.83;94.40
69842;BME280;57138;51.326;-0.068;2023-04-02T02:35:37;100095.63;;;5.84;94.36
69842;BME280;57138;51.326;-0.068;2023-04-02T02:38:36;100096.47;;;5.85;94.72
69842;BME280;57138;51.326;-0.068;2023-04-02T02:41:50;100093.81;;;5.85;94.44
69842;BME280;57138;51.326;-0.068;2023-04-02T02:44:29;100101.63;;;5.86;94.44
69842;BME280;57138;51.326;-0.068;2023-04-02T02:47:09;100112.59;;;5.91;94.13
69842;BME280;57138;51.326;-0.068;2023-04-02T02:49:51;100116.06;;;5.92;94.25
69842;BME280;57138;51.326;-0.068;2023-04-02T02:52:25;100121.03;;;5.95;94.73
69842;BME280;57138;51.326;-0.068;2023-04-02T02:55:20;100122.72;;;5.96;93.99
69842;BME280;57138;51.326;-0.068;2023-04-02T02:57:51;100118.88;;;5.90;94.92
69842;BME280;57138;51.326;-0.068;2023-04-02T03:00:18;100147.91;;;5.92;94.56
69842;BME280;57138;51.326;-0.068;2023-04-02T03:02:45;100132.63;;;5.86;94.90
69842;BME280;57138;51.326;-0.068;2023-04-02T03:05:17;100144.91;;;5.87;95.25
69842;BME280;57138;51.326;-0.068;2023-04-02T03:07:44;100139.91;;;5.84;94.83
69842;BME280;57138;51.326;-0.068;2023-04-02T03:15:31;100142.72;;;5.82;95.17
69842;BME280;57138;51.326;-0.068;2023-04-02T03:20:42;100155.34;;;5.80;96.07
69842;BME280;57138;51.326;-0.068;2023-04-02T03:23:22;100160.63;;;5.80;96.57
69842;BME280;57138;51.326;-0.068;2023-04-02T03:28:23;100174.38;;;5.75;96.81
69842;BME280;57138;51.326;-0.068;2023-04-02T03:30:59;100168.56;;;5.72;97.05
69842;BME280;57138;51.326;-0.068;2023-04-02T03:33:32;100166.06;;;5.70;97.11
69842;BME280;57138;51.326;-0.068;2023-04-02T03:38:49;100188.13;;;5.71;96.40
69842;BME280;57138;51.326;-0.068;2023-04-02T03:43:45;100182.97;;;5.69;96.89
69842;BME280;57138;51.326;-0.068;2023-04-02T03:46:28;100190.78;;;5.71;97.61
69842;BME280;57138;51.326;-0.068;2023-04-02T03:48:58;100203.22;;;5.70;96.55
69842;BME280;57138;51.326;-0.068;2023-04-02T03:51:33;100205.16;;;5.68;97.06
69842;BME280;57138;51.326;-0.068;2023-04-02T03:54:00;100197.16;;;5.60;97.15
69842;BME280;57138;51.326;-0.068;2023-04-02T03:56:30;100208.81;;;5.67;97.35
69842;BME280;57138;51.326;-0.068;2023-04-02T03:59:27;100211.47;;;5.67;96.43
69842;BME280;57138;51.326;-0.068;2023-04-02T04:04:41;100212.47;;;5.66;96.96
69842;BME280;57138;51.326;-0.068;2023-04-02T04:07:17;100219.59;;;5.66;96.38
69842;BME280;57138;51.326;-0.068;2023-04-02T04:09:45;100225.22;;;5.63;96.73
69842;BME280;57138;51.326;-0.068;2023-04-02T04:12:41;100232.31;;;5.62;97.25
69842;BME280;57138;51.326;-0.068;2023-04-02T04:15:26;100225.53;;;5.60;97.44
69842;BME280;57138;51.326;-0.068;2023-04-02T04:23:08;100237.28;;;5.57;97.78
69842;BME280;57138;51.326;-0.068;2023-04-02T04:25:34;100240.22;;;5.54;97.69
69842;BME280;57138;51.326;-0.068;2023-04-02T04:28:28;100243.84;;;5.53;97.56
69842;BME280;57138;51.326;-0.068;2023-04-02T04:31:01;100249.47;;;5.50;97.01
69842;BME280;57138;51.326;-0.068;2023-04-02T04:33:33;100249.78;;;5.47;97.06
69842;BME280;57138;51.326;-0.068;2023-04-02T04:36:05;100260.38;;;5.47;97.01
69842;BME280;57138;51.326;-0.068;2023-04-02T04:38:46;100269.19;;;5.47;96.46
69842;BME280;57138;51.326;-0.068;2023-04-02T04:41:26;100264.03;;;5.46;96.12
69842;BME280;57138;51.326;-0.068;2023-04-02T04:44:06;100271.53;;;5.50;96.30
69842;BME280;57138;51.326;-0.068;2023-04-02T04:46:48;100267.38;;;5.48;96.91
69842;BME280;57138;51.326;-0.068;2023-04-02T04:49:20;100271.69;;;5.49;96.57
69842;BME280;57138;51.326;-0.068;2023-04-02T04:51:51;100279.66;;;5.49;96.68
69842;BME280;57138;51.326;-0.068;2023-04-02T04:54:18;100277.31;;;5.46;96.69
69842;BME280;57138;51.326;-0.068;2023-04-02T04:56:50;100278.44;;;5.43;96.27
69842;BME280;57138;51.326;-0.068;2023-04-02T04:59:26;100287.91;;;5.46;96.04
69842;BME280;57138;51.326;-0.068;2023-04-02T05:02:09;100297.81;;;5.44;97.11
69842;BME280;57138;51.326;-0.068;2023-04-02T05:04:39;100303.28;;;5.42;96.81
69842;BME280;57138;51.326;-0.068;2023-04-02T05:07:19;100305.41;;;5.38;97.20
69842;BME280;57138;51.326;-0.068;2023-04-02T05:12:35;100321.63;;;5.35;96.53
69842;BME280;57138;51.326;-0.068;2023-04-02T05:15:15;100321.09;;;5.32;96.25
69842;BME280;57138;51.326;-0.068;2023-04-02T05:20:40;100330.03;;;5.31;96.24
69842;BME280;57138;51.326;-0.068;2023-04-02T05:23:18;100332.31;;;5.26;95.46
69842;BME280;57138;51.326;-0.068;2023-04-02T05:26:08;100349.34;;;5.23;95.43
69842;BME280;57138;51.326;-0.068;2023-04-02T05:29:04;100356.16;;;5.26;94.74
69842;BME280;57138;51.326;-0.068;2023-04-02T05:31:39;100364.28;;;5.24;94.91
69842;BME280;57138;51.326;-0.068;2023-04-02T05:34:07;100367.06;;;5.22;93.15
69842;BME280;57138;51.326;-0.068;2023-04-02T05:36:33;100357.59;;;5.20;92.88
69842;BME280;57138;51.326;-0.068;2023-04-02T05:38:59;100363.59;;;5.22;92.80
69842;BME280;57138;51.326;-0.068;2023-04-02T05:41:33;100379.50;;;5.22;91.79
69842;BME280;57138;51.326;-0.068;2023-04-02T05:44:16;100378.50;;;5.23;92.21
69842;BME280;57138;51.326;-0.068;2023-04-02T05:46:48;100384.81;;;5.22;91.38
69842;BME280;57138;51.326;-0.068;2023-04-02T05:49:21;100390.09;;;5.22;92.23
69842;BME280;57138;51.326;-0.068;2023-04-02T05:51:49;100396.22;;;5.22;91.40
69842;BME280;57138;51.326;-0.068;2023-04-02T05:54:37;100397.66;;;5.17;90.09
69842;BME280;57138;51.326;-0.068;2023-04-02T05:57:29;100396.53;;;5.19;89.90
69842;BME280;57138;51.326;-0.068;2023-04-02T05:59:57;100407.13;;;5.19;89.83
69842;BME280;57138;51.326;-0.068;2023-04-02T06:05:02;100409.94;;;5.18;89.58
69842;BME280;57138;51.326;-0.068;2023-04-02T06:07:48;100421.22;;;5.20;89.56
69842;BME280;57138;51.326;-0.068;2023-04-02T06:10:28;100420.53;;;5.18;89.52
69842;BME280;57138;51.326;-0.068;2023-04-02T06:13:00;100416.91;;;5.19;89.51
69842;BME280;57138;51.326;-0.068;2023-04-02T06:15:30;100422.22;;;5.19;89.44
69842;BME280;57138;51.326;-0.068;2023-04-02T06:18:24;100426.50;;;5.20;89.39
69842;BME280;57138;51.326;-0.068;2023-04-02T06:20:50;100427.50;;;5.19;88.57
69842;BME280;57138;51.326;-0.068;2023-04-02T06:25:50;100440.34;;;5.14;87.75
69842;BME280;57138;51.326;-0.068;2023-04-02T06:28:22;100439.53;;;5.13;87.76
69842;BME280;57138;51.326;-0.068;2023-04-02T06:30:52;100441.22;;;5.14;87.87
69842;BME280;57138;51.326;-0.068;2023-04-02T06:33:18;100437.03;;;5.12;87.39
69842;BME280;57138;51.326;-0.068;2023-04-02T06:35:44;100447.63;;;5.12;86.74
69842;BME280;57138;51.326;-0.068;2023-04-02T06:38:23;100459.22;;;5.11;86.27
69842;BME280;57138;51.326;-0.068;2023-04-02T06:41:10;100466.63;;;5.07;85.23
69842;BME280;57138;51.326;-0.068;2023-04-02T06:43:48;100486.72;;;5.10;86.29
69842;BME280;57138;51.326;-0.068;2023-04-02T06:46:24;100479.06;;;5.07;86.60
69842;BME280;57138;51.326;-0.068;2023-04-02T06:48:55;100483.34;;;5.08;85.63
69842;BME280;57138;51.326;-0.068;2023-04-02T06:51:23;100487.28;;;5.03;84.74
69842;BME280;57138;51.326;-0.068;2023-04-02T06:53:50;100492.59;;;5.03;85.14
69842;BME280;57138;51.326;-0.068;2023-04-02T06:58:51;100489.81;;;5.05;85.64
69842;BME280;57138;51.326;-0.068;2023-04-02T07:01:25;100498.72;;;5.04;84.80
69842;BME280;57138;51.326;-0.068;2023-04-02T07:03:52;100501.22;;;5.06;85.12
69842;BME280;57138;51.326;-0.068;2023-04-02T07:06:19;100500.25;;;5.07;85.49
69842;BME280;57138;51.326;-0.068;2023-04-02T07:08:45;100508.22;;;5.07;85.07
69842;BME280;57138;51.326;-0.068;2023-04-02T07:11:15;100522.44;;;5.06;83.36
69842;BME280;57138;51.326;-0.068;2023-04-02T07:13:42;100525.06;;;5.06;83.68
69842;BME280;57138;51.326;-0.068;2023-04-02T07:16:15;100531.34;;;5.04;84.54
69842;BME280;57138;51.326;-0.068;2023-04-02T07:18:42;100529.41;;;5.07;83.76
69842;BME280;57138;51.326;-0.068;2023-04-02T07:21:07;100540.97;;;5.06;84.04
69842;BME280;57138;51.326;-0.068;2023-04-02T07:23:33;100537.50;;;5.05;83.07
69842;BME280;57138;51.326;-0.068;2023-04-02T07:25:59;100543.63;;;5.06;84.16
69842;BME280;57138;51.326;-0.068;2023-04-02T07:28:26;100547.09;;;5.06;84.10
69842;BME280;57138;51.326;-0.068;2023-04-02T07:30:51;100532.34;;;5.03;83.11
69842;BME280;57138;51.326;-0.068;2023-04-02T07:33:23;100541.66;;;5.08;83.70
69842;BME280;57138;51.326;-0.068;2023-04-02T07:35:50;100547.81;;;5.08;83.80
69842;BME280;57138;51.326;-0.068;2023-04-02T07:38:16;100548.66;;;5.09;83.03
69842;BME280;57138;51.326;-0.068;2023-04-02T07:40:41;100557.56;;;5.08;82.63
69842;BME280;57138;51.326;-0.068;2023-04-02T07:43:07;100560.06;;;5.09;81.84
69842;BME280;57138;51.326;-0.068;2023-04-02T07:45:33;100546.97;;;5.08;82.52
69842;BME280;57138;51.326;-0.068;2023-04-02T07:48:10;100547.97;;;5.07;82.50
69842;BME280;57138;51.326;-0.068;2023-04-02T07:50:36;100545.31;;;5.07;82.64
69842;BME280;57138;51.326;-0.068;2023-04-02T07:53:02;100564.25;;;5.12;82.83
69842;BME280;57138;51.326;-0.068;2023-04-02T07:55:28;100573.03;;;5.12;83.39
69842;BME280;57138;51.326;-0.068;2023-04-02T07:57:57;100570.94;;;5.16;83.21
69842;BME280;57138;51.326;-0.068;2023-04-02T08:00:24;100568.44;;;5.14;82.84
69842;BME280;57138;51.326;-0.068;2023-04-02T08:02:51;100586.84;;;5.16;82.44
69842;BME280;57138;51.326;-0.068;2023-04-02T08:05:17;100585.19;;;5.15;82.85
69842;BME280;57138;51.326;-0.068;2023-04-02T08:07:44;100591.00;;;5.18;83.53
69842;BME280;57138;51.326;-0.068;2023-04-02T08:10:16;100593.13;;;5.15;82.08
69842;BME280;57138;51.326;-0.068;2023-04-02T08:12:43;100591.88;;;5.09;81.85
69842;BME280;57138;51.326;-0.068;2023-04-02T08:15:12;100613.38;;;5.16;83.08
69842;BME280;57138;51.326;-0.068;2023-04-02T08:17:38;100610.84;;;5.14;83.01
69842;BME280;57138;51.326;-0.068;2023-04-02T08:20:04;100619.78;;;5.13;82.52
69842;BME280;57138;51.326;-0.068;2023-04-02T08:22:30;100611.97;;;5.12;82.97
69842;BME280;57138;51.326;-0.068;2023-04-02T08:24:56;100618.09;;;5.12;83.10
69842;BME280;57138;51.326;-0.068;2023-04-02T08:27:23;100627.59;;;5.15;82.87
69842;BME280;57138;51.326;-0.068;2023-04-02T08:29:49;100629.28;;;5.16;82.96
69842;BME280;57138;51.326;-0.068;2023-04-02T08:32:15;100626.75;;;5.14;82.56
69842;BME280;57138;51.326;-0.068;2023-04-02T08:34:42;100628.97;;;5.19;83.09
69842;BME280;57138;51.326;-0.068;2023-04-02T08:37:10;100631.50;;;5.20;83.35
69842;BME280;57138;51.326;-0.068;2023-04-02T08:39:36;100630.91;;;5.17;83.28
69842;BME280;57138;51.326;-0.068;2023-04-02T08:47:34;100652.28;;;5.25;83.33
69842;BME280;57138;51.326;-0.068;2023-04-02T08:50:12;100662.72;;;5.27;82.89
69842;BME280;57138;51.326;-0.068;2023-04-02T08:52:40;100665.94;;;5.30;82.88
69842;BME280;57138;51.326;-0.068;2023-04-02T09:00:56;100672.72;;;5.43;81.61
69842;BME280;57138;51.326;-0.068;2023-04-02T09:03:31;100677.47;;;5.49;81.91
69842;BME280;57138;51.326;-0.068;2023-04-02T09:06:00;100683.31;;;5.52;82.13
69842;BME280;57138;51.326;-0.068;2023-04-02T09:08:28;100687.50;;;5.55;81.18
69842;BME280;57138;51.326;-0.068;2023-04-02T09:13:29;100694.47;;;5.56;81.53
69842;BME280;57138;51.326;-0.068;2023-04-02T09:16:16;100703.94;;;5.58;81.34
69842;BME280;57138;51.326;-0.068;2023-04-02T09:18:43;100700.34;;;5.60;80.91
69842;BME280;57138;51.326;-0.068;2023-04-02T09:21:37;100711.91;;;5.58;80.47
69842;BME280;57138;51.326;-0.068;2023-04-02T09:24:07;100710.09;;;5.59;81.09
69842;BME280;57138;51.326;-0.068;2023-04-02T09:26:33;100706.47;;;5.60;80.42
69842;BME280;57138;51.326;-0.068;2023-04-02T09:31:35;100699.59;;;5.67;79.60
69842;BME280;57138;51.326;-0.068;2023-04-02T09:34:29;100707.53;;;5.77;79.54
69842;BME280;57138;51.326;-0.068;2023-04-02T09:36:56;100711.00;;;5.78;79.18
69842;BME280;57138;51.326;-0.068;2023-04-02T09:39:31;100714.06;;;5.83;78.38
69842;BME280;57138;51.326;-0.068;2023-04-02T09:41:56;100724.78;;;5.91;78.99
69842;BME280;57138;51.326;-0.068;2023-04-02T09:46:57;100718.75;;;6.08;79.75
69842;BME280;57138;51.326;-0.068;2023-04-02T09:49:26;100709.91;;;6.18;78.85
69842;BME280;57138;51.326;-0.068;2023-04-02T09:54:39;100729.28;;;6.28;75.67
69842;BME280;57138;51.326;-0.068;2023-04-02T09:57:22;100731.31;;;6.34;75.55
69842;BME280;57138;51.326;-0.068;2023-04-02T10:00:09;100744.84;;;6.41;74.01
69842;BME280;57138;51.326;-0.068;2023-04-02T10:02:38;100728.47;;;6.45;73.67
69842;BME280;57138;51.326;-0.068;2023-04-02T10:05:08;100724.50;;;6.50;73.35
69842;BME280;57138;51.326;-0.068;2023-04-02T10:07:45;100734.25;;;6.59;73.25
69842;BME280;57138;51.326;-0.068;2023-04-02T10:10:33;100745.13;;;6.65;72.49
69842;BME280;57138;51.326;-0.068;2023-04-02T10:13:05;100756.00;;;6.72;72.57
69842;BME280;57138;51.326;-0.068;2023-04-02T10:18:41;100768.59;;;6.88;71.91
69842;BME280;57138;51.326;-0.068;2023-04-02T10:21:11;100760.84;;;6.95;72.30
69842;BME280;57138;51.326;-0.068;2023-04-02T10:23:37;100755.22;;;6.98;71.65
69842;BME280;57138;51.326;-0.068;2023-04-02T10:34:19;100780.97;;;7.33;70.52
69842;BME280;57138;51.326;-0.068;2023-04-02T10:39:33;100795.88;;;7.44;70.52
69842;BME280;57138;51.326;-0.068;2023-04-02T10:42:13;100789.56;;;7.45;69.14
69842;BME280;57138;51.326;-0.068;2023-04-02T10:44:54;100792.59;;;7.50;70.28
69842;BME280;57138;51.326;-0.068;2023-04-02T10:50:30;100778.31;;;7.51;66.93
69842;BME280;57138;51.326;-0.068;2023-04-02T10:53:17;100790.59;;;7.52;68.88
69842;BME280;57138;51.326;-0.068;2023-04-02T10:55:50;100782.94;;;7.49;69.44
69842;BME280;57138;51.326;-0.068;2023-04-02T10:58:25;100792.28;;;7.53;69.13
69842;BME280;57138;51.326;-0.068;2023-04-02T11:00:55;100791.97;;;7.56;68.76
69842;BME280;57138;51.326;-0.068;2023-04-02T11:03:34;100787.19;;;7.60;68.78
69842;BME280;57138;51.326;-0.068;2023-04-02T11:06:05;100779.34;;;7.59;67.59
69842;BME280;57138;51.326;-0.068;2023-04-02T11:08:43;100797.03;;;7.68;67.80
69842;BME280;57138;51.326;-0.068;2023-04-02T11:11:17;100788.75;;;7.71;67.55
69842;BME280;57138;51.326;-0.068;2023-04-02T11:14:00;100787.16;;;7.78;67.88
69842;BME280;57138;51.326;-0.068;2023-04-02T11:16:27;100803.47;;;7.83;66.77
69842;BME280;57138;51.326;-0.068;2023-04-02T11:21:59;100801.91;;;7.99;66.50
69842;BME280;57138;51.326;-0.068;2023-04-02T11:27:30;100804.47;;;8.08;64.25
69842;BME280;57138;51.326;-0.068;2023-04-02T11:30:04;100800.97;;;8.08;64.28
69842;BME280;57138;51.326;-0.068;2023-04-02T11:32:38;100816.28;;;8.06;66.01
69842;BME280;57138;51.326;-0.068;2023-04-02T11:40:57;100812.34;;;8.18;63.85
69842;BME280;57138;51.326;-0.068;2023-04-02T11:46:28;100809.72;;;8.26;64.68
69842;BME280;57138;51.326;-0.068;2023-04-02T11:48:50;100829.59;;;8.32;64.53
69842;BME280;57138;51.326;-0.068;2023-04-02T11:53:51;100816.19;;;8.24;63.37
69842;BME280;57138;51.326;-0.068;2023-04-02T11:59:13;100835.41;;;8.36;61.06
69842;BME280;57138;51.326;-0.068;2023-04-02T12:07:45;100855.50;;;8.48;64.25
69842;BME280;57138;51.326;-0.068;2023-04-02T12:12:44;100838.25;;;8.60;60.24
69842;BME280;57138;51.326;-0.068;2023-04-02T12:18:15;100853.91;;;8.63;60.04
69842;BME280;57138;51.326;-0.068;2023-04-02T12:20:49;100854.22;;;8.60;60.59
69842;BME280;57138;51.326;-0.068;2023-04-02T12:23:18;100851.94;;;8.74;60.55
69842;BME280;57138;51.326;-0.068;2023-04-02T12:25:53;100855.63;;;8.81;59.79
69842;BME280;57138;51.326;-0.068;2023-04-02T12:28:20;100867.03;;;8.91;60.45
69842;BME280;57138;51.326;-0.068;2023-04-02T12:30:47;100863.00;;;8.95;59.72
69842;BME280;57138;51.326;-0.068;2023-04-02T12:35:57;100850.72;;;9.19;60.06
69842;BME280;57138;51.326;-0.068;2023-04-02T12:41:32;100859.78;;;9.59;59.74
69842;BME280;57138;51.326;-0.068;2023-04-02T12:44:05;100860.13;;;9.73;56.22
69842;BME280;57138;51.326;-0.068;2023-04-02T12:46:33;100858.63;;;9.86;58.59
69842;BME280;57138;51.326;-0.068;2023-04-02T12:51:56;100858.47;;;9.88;57.53
69842;BME280;57138;51.326;-0.068;2023-04-02T12:54:21;100866.47;;;9.80;58.17
69842;BME280;57138;51.326;-0.068;2023-04-02T12:56:47;100874.47;;;9.71;57.18
69842;BME280;57138;51.326;-0.068;2023-04-02T13:01:56;100877.81;;;9.57;57.01
69842;BME280;57138;51.326;-0.068;2023-04-02T13:04:22;100880.13;;;9.52;54.76
69842;BME280;57138;51.326;-0.068;2023-04-02T13:06:49;100882.50;;;9.63;56.28
69842;BME280;57138;51.326;-0.068;2023-04-02T13:09:32;100867.78;;;9.67;55.66
69842;BME280;57138;51.326;-0.068;2023-04-02T13:11:58;100880.16;;;9.68;56.46
69842;BME280;57138;51.326;-0.068;2023-04-02T13:14:24;100871.47;;;9.66;56.79
69842;BME280;57138;51.326;-0.068;2023-04-02T13:16:51;100882.66;;;9.70;55.86
69842;BME280;57138;51.326;-0.068;2023-04-02T13:21:43;100887.81;;;9.71;55.55
69842;BME280;57138;51.326;-0.068;2023-04-02T13:24:16;100882.66;;;9.78;53.47
69842;BME280;57138;51.326;-0.068;2023-04-02T13:26:42;100892.50;;;9.86;54.13
69842;BME280;57138;51.326;-0.068;2023-04-02T13:29:26;100885.66;;;9.92;55.38
69842;BME280;57138;51.326;-0.068;2023-04-02T13:31:54;100889.84;;;10.02;53.22
69842;BME280;57138;51.326;-0.068;2023-04-02T13:34:20;100891.84;;;10.08;53.88
69842;BME280;57138;51.326;-0.068;2023-04-02T13:36:46;100899.50;;;9.95;53.52
69842;BME280;57138;51.326;-0.068;2023-04-02T13:39:11;100892.84;;;9.83;53.83
69842;BME280;57138;51.326;-0.068;2023-04-02T13:41:42;100888.50;;;9.90;53.27
69842;BME280;57138;51.326;-0.068;2023-04-02T13:44:20;100883.16;;;9.90;53.98
69842;BME280;57138;51.326;-0.068;2023-04-02T13:46:46;100889.81;;;9.86;53.54
69842;BME280;57138;51.326;-0.068;2023-04-02T13:49:12;100891.16;;;9.74;53.70
69842;BME280;57138;51.326;-0.068;2023-04-02T13:51:49;100881.66;;;9.79;53.12
69842;BME280;57138;51.326;-0.068;2023-04-02T13:54:29;100889.00;;;9.94;53.04
69842;BME280;57138;51.326;-0.068;2023-04-02T13:56:55;100904.00;;;10.03;50.22
69842;BME280;57138;51.326;-0.068;2023-04-02T13:59:22;100899.16;;;10.15;53.22
69842;BME280;57138;51.326;-0.068;2023-04-02T14:01:48;100893.94;;;10.30;53.73
69842;BME280;57138;51.326;-0.068;2023-04-02T14:04:25;100910.16;;;10.45;51.96
69842;BME280;57138;51.326;-0.068;2023-04-02T14:18:27;100907.16;;;10.23;52.75
69842;BME280;57138;51.326;-0.068;2023-04-02T14:21:05;100913.88;;;10.35;52.25
69842;BME280;57138;51.326;-0.068;2023-04-02T14:28:56;100913.53;;;10.05;51.48
69842;BME280;57138;51.326;-0.068;2023-04-02T14:31:46;100908.19;;;10.05;49.58
69842;BME280;57138;51.326;-0.068;2023-04-02T14:34:55;100894.47;;;10.17;52.57
69842;BME280;57138;51.326;-0.068;2023-04-02T14:42:46;100898.66;;;10.44;53.04
69842;BME280;57138;51.326;-0.068;2023-04-02T14:48:09;100920.69;;;10.30;51.23
69842;BME280;57138;51.326;-0.068;2023-04-02T14:50:38;100898.00;;;10.09;51.33
69842;BME280;57138;51.326;-0.068;2023-04-02T14:53:28;100888.47;;;10.06;52.33
69842;BME280;57138;51.326;-0.068;2023-04-02T14:55:56;100900.16;;;10.14;52.83
69842;BME280;57138;51.326;-0.068;2023-04-02T14:58:29;100907.81;;;10.25;53.43
69842;BME280;57138;51.326;-0.068;2023-04-02T15:01:11;100907.88;;;10.33;52.98
69842;BME280;57138;51.326;-0.068;2023-04-02T15:04:03;100911.53;;;10.24;51.19
69842;BME280;57138;51.326;-0.068;2023-04-02T15:06:41;100915.53;;;10.03;50.83
69842;BME280;57138;51.326;-0.068;2023-04-02T15:12:03;100904.88;;;9.79;53.20
69842;BME280;57138;51.326;-0.068;2023-04-02T15:14:35;100921.22;;;9.84;52.39
69842;BME280;57138;51.326;-0.068;2023-04-02T15:17:02;100905.19;;;9.84;53.40
69842;BME280;57138;51.326;-0.068;2023-04-02T15:19:28;100910.53;;;9.84;51.17
69842;BME280;57138;51.326;-0.068;2023-04-02T15:27:09;100901.84;;;9.98;52.05
69842;BME280;57138;51.326;-0.068;2023-04-02T15:29:48;100905.34;;;10.07;51.24
69842;BME280;57138;51.326;-0.068;2023-04-02T15:38:09;100895.34;;;10.01;51.64
69842;BME280;57138;51.326;-0.068;2023-04-02T15:41:00;100900.50;;;10.02;51.73
69842;BME280;57138;51.326;-0.068;2023-04-02T15:43:34;100901.50;;;10.01;51.08
69842;BME280;57138;51.326;-0.068;2023-04-02T15:46:21;100902.34;;;10.02;49.74
69842;BME280;57138;51.326;-0.068;2023-04-02T15:49:00;100892.00;;;9.99;51.20
69842;BME280;57138;51.326;-0.068;2023-04-02T15:51:35;100898.50;;;9.96;51.09
69842;BME280;57138;51.326;-0.068;2023-04-02T16:05:42;100907.38;;;9.80;51.40
69842;BME280;57138;51.326;-0.068;2023-04-02T16:08:26;100901.84;;;9.74;50.47
69842;BME280;57138;51.326;-0.068;2023-04-02T16:10:54;100906.69;;;9.70;50.92
69842;BME280;57138;51.326;-0.068;2023-04-02T16:13:31;100899.84;;;9.67;50.56
69842;BME280;57138;51.326;-0.068;2023-04-02T16:16:06;100928.06;;;9.62;48.75
69842;BME280;57138;51.326;-0.068;2023-04-02T16:18:41;100910.34;;;9.61;50.02
69842;BME280;57138;51.326;-0.068;2023-04-02T16:21:13;100896.50;;;9.57;49.57
69842;BME280;57138;51.326;-0.068;2023-04-02T16:23:41;100915.19;;;9.57;50.58
69842;BME280;57138;51.326;-0.068;2023-04-02T16:31:55;100912.19;;;9.60;50.20
69842;BME280;57138;51.326;-0.068;2023-04-02T16:37:09;100927.53;;;9.58;50.28
69842;BME280;57138;51.326;-0.068;2023-04-02T16:42:38;100928.88;;;9.46;49.41
69842;BME280;57138;51.326;-0.068;2023-04-02T17:04:33;100954.13;;;9.25;49.94
69842;BME280;57138;51.326;-0.068;2023-04-02T17:08:00;100945.78;;;9.20;49.03
69842;BME280;57138;51.326;-0.068;2023-04-02T17:13:24;100958.31;;;9.20;50.34
69842;BME280;57138;51.326;-0.068;2023-04-02T17:16:15;100974.47;;;9.18;51.02
69842;BME280;57138;51.326;-0.068;2023-04-02T17:18:47;100989.13;;;9.14;51.04
69842;BME280;57138;51.326;-0.068;2023-04-02T17:21:18;100984.09;;;9.11;50.25